Follett, TX (79034)

5:57 AM CDT on September 02, 2014 (GMT -0500)
Barnes - Farm | Change Station
CLOSE
Current Station
Personal Weather Station
Location: Gage, OK
Elevation: 2220 ft
Nearby Weather Stations

Elev 2220 ft 36.28 °N, 99.80 °W | Updated 5 seconds ago

Overcast
Overcast
69.7 °F
Feels Like 69.7 °F
N
13.0
Wind Variable Wind from ENE
Gusts 17.0 mph

Today
High -- | Low -- °F
--% Chance of Precip.
Yesterday
High -- | Low -- °F
Precip. -- in
7:12 AM 8:07 PM
Waxing Crescent, 50% visible
Pressure 29.85 in
Visibility 7.0 miles
Clouds Overcast 600 ft
Dew Point 68 °F
Humidity 95%
Rainfall 0.00 in
Snow Depth Not available.
UV 0.0 out of 12
Pollen 10.80 out of 12
Air Quality Not available.
Flu Activity Not available.
METAR KGAG 021053Z AUTO 05012G21KT 7SM OVC006 21/20 A2994 RMK AO2 SLP108 T02110200

More Conditions Fewer Conditions

Pressure 29.85 in
Visibility 7.0 miles
Clouds Overcast 600 ft
Dew Point 68 °F
Humidity 95%
Rainfall 0.00 in
Snow Depth Not available.
UV 0.0 out of 12
Pollen 10.80 out of 12
Air Quality Not available.
Flu Activity Not available.
METAR KGAG 021053Z AUTO 05012G21KT 7SM OVC006 21/20 A2994 RMK AO2 SLP108 T02110200

More Conditions Fewer Conditions

10-Day Weather Forecast

Almanac

Astronomy

Sep. 02, 2014 Rise Set
Actual Time 7:12 AM CDT 8:07 PM CDT
Civil Twilight 6:46 AM CDT 8:33 PM CDT
Nautical Twilight 6:15 AM CDT 9:04 PM CDT
Astronomical Twilight 5:43 AM CDT 9:36 PM CDT
Moon 2:46 PM CDT 12:22 AM CDT
Length of Visible Light 13h 46m
Length of Day
12h 54m
Tomorrow will be 2m 14s shorter.
Waxing Crescent, 50% of the Moon is Illuminated
Today
Waxing Crescent
Sep 2
First Quarter
Sep 8
Full
Sep 15
Last Quarter
Sep 24
New

Today's Extremes

State Highs State Lows

Community

WunderPhotos

Upload Photos

1,749,611 photos uploaded!

WunderBlogs® & News

Nearby

Snow Depth

Station Depth Elevation
No new snow has been reported.

Earthquake Activity

City Distance Mag. Time & Date
Helena, Oklahoma 99 miles 3.2 3:05 AM CDT
2014-09-02
Minimum magnitude displayed is 2.5.

Coastal Water Temperatures

Place Temperature
No Stations Reporting

Nearby Weather Stations